createdAt,value
2019-03-19T00:02:41.324Z,101684.48
2019-03-19T00:07:47.254Z,101688.38
2019-03-19T00:12:54.332Z,101695.88
2019-03-19T00:18:00.270Z,101696.70
2019-03-19T00:23:07.394Z,101700.94
2019-03-19T00:28:14.370Z,101707.80
2019-03-19T00:33:21.359Z,101715.80
2019-03-19T00:38:28.346Z,101712.91
2019-03-19T00:43:34.242Z,101714.22
2019-03-19T00:48:41.194Z,101713.34
2019-03-19T00:53:48.197Z,101712.48
2019-03-19T00:58:54.256Z,101712.48
2019-03-19T01:04:01.254Z,101712.28
2019-03-19T01:09:09.023Z,101723.00
2019-03-19T01:14:15.113Z,101717.72
2019-03-19T01:19:22.055Z,101711.00
2019-03-19T01:24:28.235Z,101709.42
2019-03-19T01:29:35.201Z,101716.80
2019-03-19T01:34:42.340Z,101738.01
2019-03-19T01:39:49.376Z,101738.01
2019-03-19T01:44:56.404Z,101748.26
2019-03-19T01:50:03.372Z,101746.81
2019-03-19T01:55:10.340Z,101755.88
2019-03-19T02:00:17.430Z,101761.23
2019-03-19T02:05:24.413Z,101762.75
2019-03-19T02:10:31.461Z,101769.22
2019-03-19T02:15:38.542Z,101781.82
2019-03-19T02:20:45.449Z,101783.75
2019-03-19T02:25:52.607Z,101794.91
2019-03-19T02:30:59.551Z,101794.91
2019-03-19T02:36:06.609Z,101802.75
2019-03-19T02:41:13.632Z,101808.09
2019-03-19T02:46:20.690Z,101799.69
2019-03-19T02:51:27.673Z,101810.44
2019-03-19T02:56:34.537Z,101814.64
2019-03-19T03:01:41.543Z,101823.23
2019-03-19T03:06:48.534Z,101822.22
2019-03-19T03:11:55.532Z,101835.69
2019-03-19T03:17:02.565Z,101841.12
2019-03-19T03:22:09.511Z,101837.36
2019-03-19T03:27:16.423Z,101836.52
2019-03-19T03:34:24.426Z,101835.77
2019-03-19T03:39:31.561Z,101850.91
2019-03-19T03:44:38.418Z,101865.14
2019-03-19T03:49:45.414Z,101865.14
2019-03-19T03:54:52.397Z,101875.44
2019-03-19T03:59:59.411Z,101885.92
2019-03-19T04:05:06.897Z,101900.36
2019-03-19T04:10:14.006Z,101906.64
2019-03-19T04:15:21.306Z,101908.91
2019-03-19T04:20:28.395Z,101926.58
2019-03-19T04:25:35.428Z,101926.58
2019-03-19T04:30:42.417Z,101932.30
2019-03-19T04:35:49.411Z,101928.09
2019-03-19T04:40:56.422Z,101937.12
2019-03-19T04:46:03.431Z,101939.50
2019-03-19T04:51:10.390Z,101948.45
2019-03-19T04:56:17.372Z,101948.45
2019-03-19T05:01:24.396Z,101948.50
2019-03-19T05:06:31.379Z,101965.75
2019-03-19T05:11:38.396Z,101973.48
2019-03-19T05:16:45.477Z,101977.91
2019-03-19T05:21:52.397Z,101982.67
2019-03-19T05:26:58.277Z,101990.23
2019-03-19T05:32:05.323Z,101993.98
2019-03-19T05:37:12.356Z,102015.22
2019-03-19T05:42:19.365Z,102009.58
2019-03-19T05:47:36.571Z,102013.23
2019-03-19T05:52:34.162Z,102017.09
2019-03-19T05:57:49.319Z,102038.88
2019-03-19T06:02:48.562Z,102038.88
2019-03-19T06:07:55.403Z,102040.97
2019-03-19T06:13:02.488Z,102051.98
2019-03-19T06:18:09.421Z,102062.49
2019-03-19T06:23:16.375Z,102062.49
2019-03-19T06:28:23.373Z,102056.07
2019-03-19T06:33:30.338Z,102067.78
2019-03-19T06:38:37.383Z,102065.87
2019-03-19T06:43:44.331Z,102066.97
2019-03-19T06:48:51.379Z,102080.94
2019-03-19T06:53:58.371Z,102081.39
2019-03-19T06:59:05.354Z,102085.83
2019-03-19T07:04:12.482Z,102087.50
2019-03-19T07:09:19.453Z,102094.87
2019-03-19T07:14:26.444Z,102091.78
2019-03-19T07:19:33.318Z,102096.03
2019-03-19T07:24:40.343Z,102106.91
2019-03-19T07:29:47.362Z,102105.13
2019-03-19T07:34:54.436Z,102120.28
2019-03-19T07:40:01.430Z,102121.89
2019-03-19T07:45:11.455Z,102132.36
2019-03-19T07:50:18.924Z,102140.84
2019-03-19T07:55:26.245Z,102143.89
2019-03-19T08:00:32.244Z,102158.06
2019-03-19T08:05:39.397Z,102170.48
2019-03-19T08:10:46.431Z,102170.48
2019-03-19T08:15:53.445Z,102187.45
2019-03-19T08:21:00.442Z,102165.90
2019-03-19T08:26:06.300Z,102167.40
2019-03-19T08:31:13.394Z,102175.48
2019-03-19T08:36:19.271Z,102188.34
2019-03-19T08:41:26.358Z,102199.14
2019-03-19T08:46:33.545Z,102205.82
2019-03-19T08:51:39.487Z,102207.86
2019-03-19T08:56:46.445Z,102207.86
2019-03-19T09:01:53.497Z,102200.16
2019-03-19T09:06:59.306Z,102212.53
2019-03-19T09:12:06.419Z,102216.39
2019-03-19T09:17:13.437Z,102216.39
2019-03-19T09:22:19.977Z,102225.61
2019-03-19T09:27:27.379Z,102223.58
2019-03-19T09:32:34.560Z,102233.48
2019-03-19T09:37:44.922Z,102227.97
2019-03-19T09:42:51.804Z,102232.80
2019-03-19T09:47:59.118Z,102232.80
2019-03-19T09:53:05.272Z,102236.53
2019-03-19T09:58:11.286Z,102238.77
2019-03-19T10:03:18.446Z,102242.13
2019-03-19T10:08:25.461Z,102243.24
2019-03-19T10:13:32.426Z,102240.19
2019-03-19T10:18:40.324Z,102244.53
2019-03-19T10:23:47.428Z,102256.06
2019-03-19T10:28:55.030Z,102256.06
2019-03-19T10:34:02.231Z,102257.67
2019-03-19T10:39:10.516Z,102259.12
2019-03-19T10:44:32.553Z,102260.19
2019-03-19T10:49:41.025Z,102281.64
2019-03-19T10:54:48.265Z,102281.64
2019-03-19T11:00:04.925Z,102269.70
2019-03-19T11:05:13.459Z,102264.97
2019-03-19T11:12:36.751Z,102266.41
2019-03-19T11:17:42.662Z,102264.20
2019-03-19T11:22:50.060Z,102269.27
2019-03-19T11:27:56.251Z,102257.45
2019-03-19T11:33:02.256Z,102254.42
2019-03-19T11:38:09.438Z,102258.70
2019-03-19T12:00:30.012Z,102263.97
2019-03-19T12:05:38.459Z,102260.52
2019-03-19T12:10:45.447Z,102272.67
2019-03-19T12:15:52.613Z,102279.85
2019-03-19T12:21:00.260Z,102288.03
2019-03-19T12:26:08.432Z,102288.03
2019-03-19T12:31:15.581Z,102304.22
2019-03-19T12:36:21.381Z,102298.64
2019-03-19T12:41:27.595Z,102298.64
2019-03-19T12:46:34.451Z,102288.27
2019-03-19T12:51:41.436Z,102290.38
2019-03-19T12:56:48.522Z,102288.55
2019-03-19T13:01:55.574Z,102278.66
2019-03-19T13:07:02.505Z,102289.52
2019-03-19T13:12:09.474Z,102289.52
2019-03-19T13:17:16.659Z,102296.91
2019-03-19T13:22:23.615Z,102304.53
2019-03-19T13:27:30.505Z,102299.68
2019-03-19T13:32:37.463Z,102299.68
2019-03-19T13:37:44.515Z,102302.45
2019-03-19T13:42:51.587Z,102309.89
2019-03-19T13:47:58.445Z,102322.19
2019-03-19T13:53:05.559Z,102322.19
2019-03-19T13:58:12.435Z,102329.50
2019-03-19T14:03:19.515Z,102329.21
2019-03-19T14:08:26.571Z,102340.41
2019-03-19T14:13:33.488Z,102338.27
2019-03-19T14:18:40.550Z,102336.16
2019-03-19T14:23:47.444Z,102333.70
2019-03-19T14:28:54.747Z,102330.02
2019-03-19T14:34:02.777Z,102330.02
2019-03-19T14:39:11.705Z,102337.89
2019-03-19T14:44:18.566Z,102346.89
2019-03-19T14:49:25.444Z,102350.76
2019-03-19T14:54:32.565Z,102350.76
2019-03-19T14:59:39.438Z,102360.52
2019-03-19T15:04:46.473Z,102360.52
2019-03-19T15:09:53.439Z,102371.71
2019-03-19T15:15:00.562Z,102365.13
2019-03-19T15:20:12.079Z,102365.59
2019-03-19T15:25:19.764Z,102361.72
2019-03-19T15:30:26.574Z,102365.39
2019-03-19T15:35:33.507Z,102374.70
2019-03-19T15:40:40.446Z,102374.70
2019-03-19T15:45:47.544Z,102383.09
2019-03-19T15:50:54.502Z,102385.35
2019-03-19T15:56:01.463Z,102391.98
2019-03-19T16:01:08.452Z,102400.81
2019-03-19T16:06:15.710Z,102402.00
2019-03-19T16:11:22.565Z,102408.59
2019-03-19T16:16:28.299Z,102413.26
2019-03-19T16:21:35.429Z,102419.63
2019-03-19T16:26:42.461Z,102419.63
2019-03-19T16:31:51.206Z,102418.44
2019-03-19T16:36:58.432Z,102421.55
2019-03-19T16:42:05.544Z,102426.23
2019-03-19T16:47:12.556Z,102443.41
2019-03-19T16:52:19.428Z,102450.17
2019-03-19T16:57:26.572Z,102450.17
2019-03-19T17:02:33.480Z,102468.34
2019-03-19T17:07:40.932Z,102468.34
2019-03-19T17:12:51.460Z,102473.70
2019-03-19T17:17:58.611Z,102478.80
2019-03-19T17:23:05.615Z,102488.85
2019-03-19T17:28:22.063Z,102486.75
2019-03-19T17:33:21.591Z,102486.75
2019-03-19T17:38:28.431Z,102506.16
2019-03-19T17:43:35.531Z,102506.16
2019-03-19T17:48:42.443Z,102522.11
2019-03-19T17:53:49.550Z,102522.11
2019-03-19T17:58:56.572Z,102534.45
2019-03-19T18:04:03.542Z,102534.45
2019-03-19T18:09:10.586Z,102548.81
2019-03-19T18:14:17.448Z,102558.50
2019-03-19T18:19:25.276Z,102560.30
2019-03-19T18:24:32.426Z,102564.97
2019-03-19T18:29:39.575Z,102569.33
2019-03-19T18:34:46.576Z,102586.80
2019-03-19T18:39:53.460Z,102595.89
2019-03-19T18:45:00.458Z,102595.89
2019-03-19T18:50:11.565Z,102600.28
2019-03-19T18:55:18.576Z,102597.80
2019-03-19T19:00:25.571Z,102614.70
2019-03-19T19:05:32.577Z,102612.75
2019-03-19T19:10:39.565Z,102621.41
2019-03-19T19:15:46.437Z,102621.41
2019-03-19T19:20:53.431Z,102623.67
2019-03-19T19:26:00.409Z,102630.58
2019-03-19T19:31:07.337Z,102640.48
2019-03-19T19:36:14.448Z,102646.86
2019-03-19T19:41:21.705Z,102650.03
2019-03-19T19:46:28.564Z,102649.11
2019-03-19T19:51:35.564Z,102662.67
2019-03-19T19:56:42.376Z,102662.67
2019-03-19T20:01:49.349Z,102670.00
2019-03-19T20:06:56.348Z,102676.78
2019-03-19T20:12:03.310Z,102680.02
2019-03-19T20:17:10.391Z,102689.02
2019-03-19T20:22:17.317Z,102697.61
2019-03-19T20:27:24.459Z,102699.17
2019-03-19T20:32:31.572Z,102712.48
2019-03-19T20:37:39.558Z,102713.38
2019-03-19T20:42:46.703Z,102713.38
2019-03-19T20:47:53.565Z,102736.48
2019-03-19T20:53:00.438Z,102741.52
2019-03-19T20:58:08.856Z,102741.52
2019-03-19T21:03:16.669Z,102749.41
2019-03-19T21:08:24.038Z,102759.30
2019-03-19T21:13:31.600Z,102759.99
2019-03-19T21:18:38.473Z,102766.49
2019-03-19T21:23:45.645Z,102776.74
2019-03-19T21:28:52.599Z,102776.74
2019-03-19T21:34:00.411Z,102787.27
2019-03-19T21:39:09.761Z,102784.27
2019-03-19T21:44:17.075Z,102784.71
2019-03-19T21:49:24.577Z,102783.30
2019-03-19T21:54:31.522Z,102807.41
2019-03-19T21:59:38.418Z,102799.05
2019-03-19T22:04:45.326Z,102799.05
2019-03-19T22:09:51.233Z,102808.52
2019-03-19T22:14:58.239Z,102807.75
2019-03-19T22:20:05.397Z,102806.85
2019-03-19T22:25:13.967Z,102809.20
2019-03-19T22:30:20.860Z,102803.31
2019-03-19T22:35:27.824Z,102808.22
2019-03-19T22:40:34.674Z,102821.86
2019-03-19T22:45:41.406Z,102821.91
2019-03-19T22:50:48.342Z,102820.41
2019-03-19T22:55:55.322Z,102815.19
2019-03-19T23:01:02.485Z,102827.77
2019-03-19T23:06:11.330Z,102831.28
2019-03-19T23:11:18.314Z,102831.41
2019-03-19T23:16:26.968Z,102838.50
2019-03-19T23:21:32.863Z,102844.71
2019-03-19T23:26:39.686Z,102847.81
2019-03-19T23:31:46.427Z,102847.81
2019-03-19T23:36:53.369Z,102849.19
2019-03-19T23:42:01.498Z,102850.42
2019-03-19T23:47:08.353Z,102843.97
2019-03-19T23:53:29.422Z,102844.05
2019-03-19T23:58:36.382Z,102844.05
